Time;durP1;ratioP1;P1;durP2;ratioP2;P2;SDS_P1;SDS_P2;PMS_P1;PMS_P2;Temp;Humidity;BMP_temperature;BMP_pressure;BME280_temperature;BME280_humidity;BME280_pressure;Samples;Min_cycle;Max_cycle;Signal;HPM_P1;HPM_P2
2023/03/22 00:02:08;;;;;;;;;;;6.90;85.40;;;-151.14;100.00;62537.16;5075671;28;20211;-84
2023/03/22 00:04:36;;;;;;;;;;;6.90;85.30;;;-151.14;100.00;62537.16;5092423;28;20381;-85
2023/03/22 00:07:04;;;;;;;;;;;6.90;85.30;;;-151.14;100.00;62537.16;5092466;28;20135;-85
2023/03/22 00:09:32;;;;;;;;;;;6.90;85.30;;;-151.14;100.00;62537.16;5092463;28;19944;-85
2023/03/22 00:12:01;;;;;;;;;;;6.80;85.20;;;-151.14;100.00;62537.16;5093533;28;19920;-85
2023/03/22 00:14:29;;;;;;;;;;;6.90;85.40;;;-151.14;100.00;62537.16;5075329;28;19920;-85
2023/03/22 00:16:57;;;;;;;;;;;6.90;85.30;;;-151.14;100.00;62537.16;5092771;28;20222;-85
2023/03/22 00:19:27;;;;;;;;;;;6.90;85.30;;;-151.14;100.00;62537.16;5092526;28;19920;-85
2023/03/22 00:21:55;;;;;;;;;;;6.80;85.30;;;-151.14;100.00;62537.16;5075927;28;19926;-84
2023/03/22 00:24:23;;;;;;;;;;;6.90;85.40;;;-151.14;100.00;62537.16;5074884;28;19926;-84
2023/03/22 00:26:51;;;;;;;;;;;6.90;85.30;;;-151.14;100.00;62537.16;5075349;28;19920;-84
2023/03/22 00:29:21;;;;;;;;;;;6.90;85.30;;;-151.14;100.00;62537.16;5092334;28;19920;-84
2023/03/22 00:31:50;;;;;;;;;;;6.80;85.30;;;-151.14;100.00;62537.16;5092228;28;19927;-84
2023/03/22 00:34:18;;;;;;;;;;;6.90;85.30;;;-151.14;100.00;62537.16;5092855;28;19927;-84
2023/03/22 00:36:47;;;;;;;;;;;6.90;85.50;;;-151.14;100.00;62537.16;5075096;28;19926;-84
2023/03/22 00:39:15;;;;;;;;;;;6.80;86.10;;;-151.14;100.00;62537.16;5109189;28;19927;-85
2023/03/22 00:41:43;;;;;;;;;;;6.90;85.50;;;-151.14;100.00;62537.16;5075073;28;19920;-84
2023/03/22 00:44:12;;;;;;;;;;;6.80;85.30;;;-151.14;100.00;62537.16;5091488;28;20112;-84
2023/03/22 00:46:42;;;;;;;;;;;6.90;85.40;;;-151.14;100.00;62537.16;5092037;28;20097;-85
2023/03/22 00:49:10;;;;;;;;;;;6.80;85.30;;;-151.14;100.00;62537.16;5092070;28;19920;-84
2023/03/22 00:51:38;;;;;;;;;;;6.90;85.40;;;-151.14;100.00;62537.16;5074985;28;19920;-84
2023/03/22 00:54:06;;;;;;;;;;;6.90;85.50;;;-151.14;100.00;62537.16;5074672;28;19926;-84
2023/03/22 00:56:36;;;;;;;;;;;6.90;86.30;;;-151.14;100.00;62537.16;5075324;28;19920;-84
2023/03/22 00:59:12;;;;;;;;;;;6.90;85.50;;;-151.14;100.00;62537.16;5075148;28;19926;-84
2023/03/22 01:01:43;;;;;;;;;;;6.90;85.40;;;-151.14;100.00;62537.16;5075150;28;19920;-84
2023/03/22 01:04:16;;;;;;;;;;;6.80;85.30;;;-151.14;100.00;62537.16;5074474;28;19920;-84
2023/03/22 01:06:45;;;;;;;;;;;6.80;85.30;;;-151.14;100.00;62537.16;5091784;28;19927;-85
2023/03/22 01:09:14;;;;;;;;;;;6.80;85.30;;;-151.14;100.00;62537.16;5074880;28;20093;-84
2023/03/22 01:11:42;;;;;;;;;;;6.80;85.30;;;-151.14;100.00;62537.16;5092822;28;19927;-84
2023/03/22 01:14:12;;;;;;;;;;;6.80;85.30;;;-151.14;100.00;62537.16;5108160;28;19934;-84
2023/03/22 01:16:40;;;;;;;;;;;6.80;85.40;;;-151.14;100.00;62537.16;5091790;28;19920;-84
2023/03/22 01:19:10;;;;;;;;;;;6.80;85.30;;;-151.14;100.00;62537.16;5074763;28;19928;-84
2023/03/22 01:21:38;;;;;;;;;;;6.80;85.30;;;-151.14;100.00;62537.16;5091633;28;20204;-84
2023/03/22 01:24:07;;;;;;;;;;;6.80;85.30;;;-151.14;100.00;62537.16;5074300;28;19926;-84
2023/03/22 01:26:36;;;;;;;;;;;6.80;85.50;;;-151.14;100.00;62537.16;5091517;28;19920;-85
2023/03/22 01:29:04;;;;;;;;;;;6.80;85.40;;;;;;5091434;28;19928;-84
2023/03/22 01:31:32;;;;;;;;;;;6.80;85.40;;;-151.14;100.00;62537.16;5092613;28;19943;-84
2023/03/22 01:34:00;;;;;;;;;;;6.80;85.40;;;-151.14;100.00;62537.16;5085429;28;19926;-84
2023/03/22 01:36:30;;;;;;;;;;;6.80;85.40;;;-151.14;100.00;62537.16;5091338;28;20359;-84
2023/03/22 01:38:59;;;;;;;;;;;6.80;85.40;;;-151.14;100.00;62537.16;5091131;28;20089;-84
2023/03/22 01:41:27;;;;;;;;;;;6.80;85.40;;;-151.14;100.00;62537.16;5108479;28;19920;-84
2023/03/22 01:44:09;;;;;;;;;;;6.80;85.40;;;-151.14;100.00;62537.16;5077483;28;19928;-85
2023/03/22 01:46:38;;;;;;;;;;;6.80;85.40;;;-151.14;100.00;62537.16;5071069;28;19943;-84
2023/03/22 01:49:06;;;;;;;;;;;6.80;85.40;;;-151.14;100.00;62537.16;5070626;28;19927;-85
2023/03/22 01:51:36;;;;;;;;;;;6.80;85.40;;;-151.14;100.00;62537.16;5070847;28;19927;-84
2023/03/22 01:54:18;;;;;;;;;;;6.80;85.40;;;-151.14;100.00;62537.16;5084645;28;19920;-84
2023/03/22 01:56:46;;;;;;;;;;;6.80;85.50;;;-151.14;100.00;62537.16;5091055;28;19928;-84
2023/03/22 01:59:21;;;;;;;;;;;6.80;85.50;;;-151.14;100.00;62537.16;5107885;28;19920;-84
2023/03/22 02:02:17;;;;;;;;;;;6.80;85.50;;;-151.14;100.00;62537.16;5090794;28;19939;-84
2023/03/22 02:04:56;;;;;;;;;;;6.80;85.50;;;-151.14;100.00;62537.16;5107069;28;20226;-84
2023/03/22 02:07:26;;;;;;;;;;;6.80;85.40;;;-151.14;100.00;62537.16;5090927;28;19920;-84
2023/03/22 02:09:56;;;;;;;;;;;6.80;85.50;;;-151.14;100.00;62537.16;5107590;28;20115;-84
2023/03/22 02:12:31;;;;;;;;;;;6.80;85.40;;;-151.14;100.00;62537.16;5090782;28;20209;-84
2023/03/22 02:15:05;;;;;;;;;;;6.80;85.40;;;-151.14;100.00;62537.16;5073288;28;19920;-84
2023/03/22 02:18:05;;;;;;;;;;;6.80;85.50;;;-151.14;100.00;62537.16;5107687;28;19920;-85
2023/03/22 02:21:18;;;;;;;;;;;6.80;85.40;;;-151.14;100.00;62537.16;5073906;28;19920;-84
2023/03/22 02:24:12;;;;;;;;;;;6.80;85.50;;;-151.14;100.00;62537.16;5044204;28;19920;-84
2023/03/22 02:27:14;;;;;;;;;;;6.80;85.50;;;-151.14;100.00;62537.16;5071167;28;19920;-84
2023/03/22 02:29:44;;;;;;;;;;;6.80;85.50;;;-151.14;100.00;62537.16;5097401;28;19920;-84
2023/03/22 02:32:39;;;;;;;;;;;6.80;85.40;;;-151.14;100.00;62537.16;5107478;28;19927;-84
2023/03/22 02:35:27;;;;;;;;;;;6.80;85.40;;;-151.14;100.00;62537.16;5090271;28;19926;-84
2023/03/22 02:38:25;;;;;;;;;;;6.80;85.50;;;-151.14;100.00;62537.16;5090549;28;19920;-84
2023/03/22 02:40:55;;;;;;;;;;;6.80;85.50;;;-151.14;100.00;62537.16;5053646;28;20123;-84
2023/03/22 02:43:29;;;;;;;;;;;6.80;85.50;;;-151.14;100.00;62537.16;5069604;28;19920;-84
2023/03/22 02:46:00;;;;;;;;;;;6.80;85.40;;;-151.14;100.00;62537.16;5070283;28;19920;-84
2023/03/22 02:48:30;;;;;;;;;;;6.80;85.60;;;-151.14;100.00;62537.16;5070098;28;19936;-84
2023/03/22 02:51:00;;;;;;;;;;;6.80;85.50;;;-151.14;100.00;62537.16;5069864;28;19921;-84
2023/03/22 02:53:29;;;;;;;;;;;6.80;85.50;;;-151.14;100.00;62537.16;5070896;28;20120;-84
2023/03/22 02:56:02;;;;;;;;;;;6.80;85.40;;;-151.14;100.00;62537.16;5090155;28;20212;-84
2023/03/22 02:58:33;;;;;;;;;;;6.80;85.50;;;-151.14;100.00;62537.16;5090327;28;19920;-84
2023/03/22 03:01:02;;;;;;;;;;;6.80;85.50;;;-151.14;100.00;62537.16;5073325;28;19920;-84
2023/03/22 03:03:30;;;;;;;;;;;6.80;85.40;;;-151.14;100.00;62537.16;5089472;28;19927;-84
2023/03/22 03:06:00;;;;;;;;;;;6.80;85.50;;;-151.14;100.00;62537.16;5073274;28;19981;-84
2023/03/22 03:08:28;;;;;;;;;;;6.80;85.40;;;-151.14;100.00;62537.16;5073249;28;19920;-84
2023/03/22 03:10:57;;;;;;;;;;;6.80;85.50;;;-151.14;100.00;62537.16;5089941;28;20208;-84
2023/03/22 03:13:26;;;;;;;;;;;6.80;85.50;;;-151.14;100.00;62537.16;5072310;28;19920;-84
2023/03/22 03:15:57;;;;;;;;;;;6.80;85.50;;;-151.14;100.00;62537.16;5073258;28;19921;-84
2023/03/22 03:18:45;;;;;;;;;;;6.80;85.40;;;-151.14;100.00;62537.16;5073087;28;19920;-84
2023/03/22 03:21:20;;;;;;;;;;;6.90;85.50;;;-151.14;100.00;62537.16;5086187;28;19920;-84
2023/03/22 03:23:51;;;;;;;;;;;6.80;85.40;;;-151.14;100.00;62537.16;5085855;28;19920;-84
2023/03/22 03:26:22;;;;;;;;;;;6.80;85.40;;;-151.14;100.00;62537.16;5052660;28;19925;-84
2023/03/22 03:28:52;;;;;;;;;;;6.80;85.60;;;-151.14;100.00;62537.16;5072008;28;19920;-84
2023/03/22 03:31:28;;;;;;;;;;;6.80;85.50;;;-151.14;100.00;62537.16;5056418;28;19943;-84
2023/03/22 03:33:59;;;;;;;;;;;6.80;85.50;;;-151.14;100.00;62537.16;5106073;28;19920;-84
2023/03/22 03:36:28;;;;;;;;;;;6.80;85.50;;;-151.14;100.00;62537.16;5056364;28;19920;-84
2023/03/22 03:38:55;;;;;;;;;;;6.80;85.50;;;-151.14;100.00;62537.16;5074056;28;19935;-84
2023/03/22 03:41:28;;;;;;;;;;;6.80;85.50;;;-151.14;100.00;62537.16;5089701;28;20200;-84
2023/03/22 03:43:58;;;;;;;;;;;6.80;85.50;;;-151.14;100.00;62537.16;5088845;28;19921;-84
2023/03/22 03:46:28;;;;;;;;;;;6.80;85.50;;;-151.14;100.00;62537.16;5089643;28;19943;-84
2023/03/22 03:48:56;;;;;;;;;;;6.90;85.60;;;-151.14;100.00;62537.16;5089324;28;19921;-84
2023/03/22 03:51:24;;;;;;;;;;;6.80;85.50;;;-151.14;100.00;62537.16;5056093;28;19921;-84
2023/03/22 03:53:52;;;;;;;;;;;6.80;85.50;;;-151.14;100.00;62537.16;5072358;28;19920;-84
2023/03/22 03:56:21;;;;;;;;;;;6.80;85.50;;;-151.14;100.00;62537.16;5089475;28;19920;-84
2023/03/22 03:58:51;;;;;;;;;;;6.80;85.60;;;-151.14;100.00;62537.16;5056038;28;19921;-84
2023/03/22 04:01:22;;;;;;;;;;;6.80;85.60;;;-151.14;100.00;62537.16;5089317;28;19921;-84
2023/03/22 04:04:17;;;;;;;;;;;6.80;85.60;;;-151.14;100.00;62537.16;5073835;28;19920;-84
2023/03/22 04:06:49;;;;;;;;;;;6.80;85.60;;;18.09;100.00;62537.16;5056013;28;19920;-84
2023/03/22 04:09:22;;;;;;;;;;;6.80;85.50;;;-151.14;100.00;62537.16;5089266;28;19921;-84
2023/03/22 04:11:55;;;;;;;;;;;6.80;85.60;;;-151.14;100.00;62537.16;5092539;28;19920;-84
2023/03/22 04:14:23;;;;;;;;;;;6.80;85.60;;;-151.14;100.00;62537.16;5075042;28;19927;-84
2023/03/22 04:16:54;;;;;;;;;;;6.80;85.60;;;-151.14;100.00;62537.16;5092738;28;19926;-84
2023/03/22 04:19:23;;;;;;;;;;;6.80;85.60;;;-151.14;100.00;62537.16;5092233;28;19920;-84
2023/03/22 04:21:51;;;;;;;;;;;6.80;85.60;;;-151.14;100.00;62537.16;5092550;28;19920;-84
2023/03/22 04:24:20;;;;;;;;;;;6.80;85.50;;;-151.14;100.00;62537.16;5091744;28;20220;-84
2023/03/22 04:26:52;;;;;;;;;;;6.80;85.60;;;-151.14;100.00;62537.16;5092509;28;20259;-84
2023/03/22 04:29:25;;;;;;;;;;;6.80;85.60;;;-151.14;100.00;62537.16;5109145;28;19927;-84
2023/03/22 04:32:00;;;;;;;;;;;6.80;85.60;;;-151.14;100.00;62537.16;5092553;28;20142;-84
2023/03/22 04:34:42;;;;;;;;;;;6.80;85.60;;;-151.14;100.00;62537.16;5091698;28;19927;-84
2023/03/22 04:37:12;;;;;;;;;;;6.80;85.60;;;-151.14;100.00;62537.16;5092216;28;19978;-84
2023/03/22 04:40:07;;;;;;;;;;;6.80;85.60;;;-151.14;100.00;62537.16;5095152;28;19954;-84
2023/03/22 04:42:56;;;;;;;;;;;6.80;85.60;;;-151.14;100.00;62537.16;5071561;28;20139;-84
2023/03/22 04:45:33;;;;;;;;;;;6.80;85.50;;;-151.14;100.00;62537.16;5071887;28;19921;-84
2023/03/22 04:48:06;;;;;;;;;;;6.80;85.60;;;-151.14;100.00;62537.16;5055294;28;19927;-84
2023/03/22 04:50:36;;;;;;;;;;;6.80;85.60;;;-151.14;100.00;62537.16;5055077;28;19920;-84
2023/03/22 04:53:05;;;;;;;;;;;6.80;85.60;;;18.08;100.00;62537.16;5054657;28;19927;-84
2023/03/22 04:55:34;;;;;;;;;;;6.80;85.60;;;-151.14;100.00;62537.16;5054961;28;19921;-84
2023/03/22 04:58:02;;;;;;;;;;;6.80;85.60;;;-151.14;100.00;62537.16;5055238;28;19920;-84
2023/03/22 05:00:31;;;;;;;;;;;6.80;85.60;;;-151.14;100.00;62537.16;5055026;28;20116;-84
2023/03/22 05:03:02;;;;;;;;;;;6.80;85.60;;;-151.14;100.00;62537.16;5054563;28;19935;-84
2023/03/22 05:05:39;;;;;;;;;;;6.80;85.60;;;-151.14;100.00;62537.16;5054938;28;20238;-84
2023/03/22 05:08:13;;;;;;;;;;;6.80;85.60;;;-151.14;100.00;62537.16;5071735;28;19927;-84
2023/03/22 05:10:41;;;;;;;;;;;6.80;85.60;;;-151.14;100.00;62537.16;5071676;28;20123;-84
2023/03/22 05:13:10;;;;;;;;;;;6.80;85.60;;;-151.14;100.00;62537.16;5054211;28;19920;-84
2023/03/22 05:15:42;;;;;;;;;;;6.80;85.60;;;-151.14;100.00;62537.16;5054861;28;20208;-84
2023/03/22 05:18:13;;;;;;;;;;;6.90;85.70;;;-151.14;100.00;62537.16;5073854;28;19927;-84
2023/03/22 05:20:42;;;;;;;;;;;6.80;85.50;;;-151.14;100.00;62537.16;5074670;28;19924;-84
2023/03/22 05:23:18;;;;;;;;;;;6.80;85.50;;;-151.14;100.00;62537.16;5074658;28;19926;-84
2023/03/22 05:25:48;;;;;;;;;;;6.80;85.60;;;-151.14;100.00;62537.16;5091485;28;19926;-84
2023/03/22 05:28:18;;;;;;;;;;;6.90;85.80;;;-151.14;100.00;62537.16;5091649;28;20190;-84
2023/03/22 05:31:07;;;;;;;;;;;6.90;85.70;;;-151.14;100.00;62537.16;5091964;28;19934;-84
2023/03/22 05:33:45;;;;;;;;;;;6.90;85.80;;;-151.14;100.00;62537.16;5074088;28;19921;-84
2023/03/22 05:36:17;;;;;;;;;;;6.90;85.70;;;18.09;100.00;62537.16;5091300;28;19920;-83
2023/03/22 05:39:03;;;;;;;;;;;6.80;85.50;;;-151.14;100.00;62537.16;5091453;28;19926;-84
2023/03/22 05:41:32;;;;;;;;;;;6.80;85.50;;;-151.14;100.00;62537.16;5074295;28;19920;-84
2023/03/22 05:44:00;;;;;;;;;;;6.90;85.60;;;-151.14;100.00;62537.16;5073823;28;19926;-84
2023/03/22 05:46:29;;;;;;;;;;;6.90;85.70;;;-151.14;100.00;62537.16;5074440;28;19920;-84
2023/03/22 05:49:33;;;;;;;;;;;6.90;85.70;;;-151.14;100.00;62537.16;5052478;28;19921;-84
2023/03/22 05:52:04;;;;;;;;;;;6.90;85.70;;;-151.14;100.00;62537.16;5083233;28;20148;-84
2023/03/22 05:54:49;;;;;;;;;;;6.90;85.70;;;-151.14;100.00;62537.16;5073631;28;19981;-84
2023/03/22 05:57:17;;;;;;;;;;;6.90;85.80;;;-151.14;100.00;62537.16;5074335;28;19926;-84
2023/03/22 05:59:45;;;;;;;;;;;6.90;85.70;;;-151.14;100.00;62537.16;5090828;28;19926;-84
2023/03/22 06:02:20;;;;;;;;;;;6.80;85.70;;;-151.14;100.00;62537.16;5091010;28;19927;-84
2023/03/22 06:04:48;;;;;;;;;;;6.90;85.70;;;-151.14;100.00;62537.16;5073742;28;19920;-84
2023/03/22 06:07:19;;;;;;;;;;;6.90;85.70;;;-151.14;100.00;62537.16;5090716;28;19928;-84
2023/03/22 06:09:52;;;;;;;;;;;6.90;85.60;;;-151.14;100.00;62537.16;5074067;28;19993;-84
2023/03/22 06:12:24;;;;;;;;;;;6.90;85.60;;;-151.14;100.00;62537.16;5073982;28;20093;-84
2023/03/22 06:15:00;;;;;;;;;;;6.90;85.60;;;-151.14;100.00;62537.16;5073591;28;19935;-84
2023/03/22 06:17:51;;;;;;;;;;;6.90;85.60;;;-151.14;100.00;62537.16;5089971;28;20230;-84
2023/03/22 06:20:24;;;;;;;;;;;6.90;85.70;;;-151.14;100.00;62537.16;5074098;28;19920;-84
2023/03/22 06:23:00;;;;;;;;;;;6.90;85.60;;;-151.14;100.00;62537.16;5073536;28;20529;-83
2023/03/22 06:25:28;;;;;;;;;;;6.90;85.50;;;-151.14;100.00;62537.16;5073860;28;19942;-84
2023/03/22 06:27:57;;;;;;;;;;;6.90;85.70;;;-151.14;100.00;62537.16;5073851;28;19920;-84
2023/03/22 06:30:26;;;;;;;;;;;6.90;85.70;;;-151.14;100.00;62537.16;5107427;28;19920;-84
2023/03/22 06:33:12;;;;;;;;;;;6.90;85.60;;;-151.14;100.00;62537.16;5089588;28;19927;-83
2023/03/22 06:35:44;;;;;;;;;;;6.90;85.70;;;-151.14;100.00;62537.16;5090420;28;19927;-83
2023/03/22 06:38:18;;;;;;;;;;;6.90;85.60;;;-151.14;100.00;62537.16;5090445;28;20123;-84
2023/03/22 06:40:46;;;;;;;;;;;6.90;85.70;;;-151.14;100.00;62537.16;5090388;28;19928;-84
2023/03/22 06:43:14;;;;;;;;;;;6.90;85.50;;;-151.14;100.00;62537.16;5089617;28;19926;-84
2023/03/22 06:45:46;;;;;;;;;;;6.90;85.60;;;-151.14;100.00;62537.16;5090247;28;19926;-84
2023/03/22 06:48:14;;;;;;;;;;;6.90;85.50;;;-151.14;100.00;62537.16;5073342;28;19926;-83
2023/03/22 06:50:58;;;;;;;;;;;6.90;85.50;;;-151.14;100.00;62537.16;5090238;28;19920;-83
2023/03/22 06:53:38;;;;;;;;;;;6.90;85.50;;;-151.14;100.00;62537.16;5089968;28;19920;-83
2023/03/22 06:56:06;;;;;;;;;;;6.90;85.50;;;-151.14;100.00;62537.16;5090015;28;19920;-84
2023/03/22 06:58:46;;;;;;;;;;;6.90;85.50;;;-151.14;100.00;62537.16;5073351;28;19936;-84
2023/03/22 07:01:15;;;;;;;;;;;6.90;85.40;;;-151.14;100.00;62537.16;5091292;28;19926;-83
2023/03/22 07:03:42;;;;;;;;;;;7.00;85.60;;;-151.14;100.00;62537.16;5110438;28;19924;-84
2023/03/22 07:06:14;;;;;;;;;;;7.00;85.40;;;-151.14;100.00;62537.16;5093373;28;20115;-83
2023/03/22 07:08:48;;;;;;;;;;;6.90;85.30;;;-151.14;100.00;62537.16;5076905;28;19920;-83
2023/03/22 07:11:20;;;;;;;;;;;7.00;85.30;;;-151.14;100.00;62537.16;5076856;28;20216;-84
2023/03/22 07:13:54;;;;;;;;;;;7.00;85.40;;;-151.14;100.00;62537.16;5076227;28;19926;-83
2023/03/22 07:16:22;;;;;;;;;;;7.00;85.30;;;-151.14;100.00;62537.16;5093543;28;19926;-84
2023/03/22 07:18:57;;;;;;;;;;;7.00;85.30;;;-151.14;100.00;62537.16;5077047;28;19920;-84
2023/03/22 07:21:25;;;;;;;;;;;7.00;85.30;;;-151.14;100.00;62537.16;5093315;28;19920;-83
2023/03/22 07:23:59;;;;;;;;;;;7.00;85.20;;;-151.14;100.00;62537.16;5076124;28;19920;-83
2023/03/22 07:26:30;;;;;;;;;;;7.00;85.20;;;-151.14;100.00;62537.16;5110267;28;19920;-84
2023/03/22 07:28:59;;;;;;;;;;;7.00;85.20;;;-151.14;100.00;62537.16;5110262;28;20224;-83
2023/03/22 07:31:34;;;;;;;;;;;7.00;85.10;;;-151.14;100.00;62537.16;5110166;28;19920;-84
2023/03/22 07:34:07;;;;;;;;;;;7.00;85.10;;;-151.14;100.00;62537.16;5109678;28;19920;-83
2023/03/22 07:36:47;;;;;;;;;;;7.10;85.20;;;-151.14;100.00;62537.16;5076491;28;19919;-84
2023/03/22 07:39:17;;;;;;;;;;;7.10;85.20;;;-151.14;100.00;62537.16;5092837;28;19926;-84
2023/03/22 07:41:48;;;;;;;;;;;7.10;85.20;;;-151.14;100.00;62537.16;5110303;28;20205;-84
2023/03/22 07:44:25;;;;;;;;;;;7.10;85.20;;;-151.14;100.00;62537.16;5093576;28;19920;-84
2023/03/22 07:47:22;;;;;;;;;;;7.10;85.20;;;-151.14;100.00;62537.16;5093043;28;19927;-83
2023/03/22 07:50:02;;;;;;;;;;;7.10;85.10;;;-151.14;100.00;62537.16;5092976;28;19926;-83
2023/03/22 07:52:33;;;;;;;;;;;7.10;85.20;;;-151.14;100.00;62537.16;5109810;28;19926;-83
2023/03/22 07:55:02;;;;;;;;;;;7.20;85.10;;;-151.14;100.00;62537.16;5092573;28;19920;-83
2023/03/22 07:57:30;;;;;;;;;;;7.30;85.00;;;-151.14;100.00;62537.16;5109827;28;19927;-83
2023/03/22 08:00:01;;;;;;;;;;;7.30;84.50;;;-151.14;100.00;62537.16;5092795;28;19920;-83
2023/03/22 08:02:44;;;;;;;;;;;7.40;84.40;;;-151.14;100.00;62537.16;5093400;28;19924;-84
2023/03/22 08:05:17;;;;;;;;;;;7.40;84.20;;;-151.14;100.00;62537.16;5082249;28;19928;-84
2023/03/22 08:07:47;;;;;;;;;;;7.40;84.30;;;-151.14;100.00;62537.16;5092890;28;19927;-83
2023/03/22 08:10:17;;;;;;;;;;;7.50;84.20;;;-151.14;100.00;62537.16;5075743;28;20227;-83
2023/03/22 08:12:45;;;;;;;;;;;7.50;84.00;;;-151.14;100.00;62537.16;5074494;28;19926;-84
2023/03/22 08:15:23;;;;;;;;;;;7.60;83.70;;;-151.14;100.00;62537.16;5092686;28;19927;-83
2023/03/22 08:17:51;;;;;;;;;;;7.60;83.40;;;-151.14;100.00;62537.16;5092695;28;19920;-83
2023/03/22 08:20:29;;;;;;;;;;;7.70;83.30;;;-151.14;100.00;62537.16;5092603;28;19920;-83
2023/03/22 08:23:02;;;;;;;;;;;7.70;83.20;;;-151.14;100.00;62537.16;5075189;28;20119;-84
2023/03/22 08:25:54;;;;;;;;;;;7.70;83.20;;;-151.14;100.00;62537.16;5091598;28;19920;-83
2023/03/22 08:28:22;;;;;;;;;;;7.70;83.30;;;-151.14;100.00;62537.16;5075461;28;20234;-83
2023/03/22 08:30:51;;;;;;;;;;;7.60;83.20;;;18.09;100.00;62537.16;5075644;28;20111;-83
2023/03/22 08:33:22;;;;;;;;;;;7.60;83.20;;;-151.14;100.00;62537.16;5091798;28;19926;-83
2023/03/22 08:35:51;;;;;;;;;;;7.60;83.20;;;-151.14;100.00;62537.16;5075544;28;19920;-83
2023/03/22 08:38:19;;;;;;;;;;;7.60;83.30;;;-151.14;100.00;62537.16;5092047;28;19927;-83
2023/03/22 08:40:51;;;;;;;;;;;7.60;83.30;;;-151.14;100.00;62537.16;5075462;28;20211;-83
2023/03/22 08:43:25;;;;;;;;;;;7.60;83.40;;;18.08;100.00;62537.16;5091670;28;19927;-83
2023/03/22 08:45:53;;;;;;;;;;;7.60;83.40;;;-151.14;100.00;62537.16;5075445;28;19926;-83
2023/03/22 08:48:22;;;;;;;;;;;7.70;83.50;;;-151.14;100.00;62537.16;5075246;28;19920;-83
2023/03/22 08:51:14;;;;;;;;;;;7.70;83.30;;;-151.14;100.00;62537.16;5092185;28;19920;-83
2023/03/22 08:53:59;;;;;;;;;;;7.70;83.40;;;-151.14;100.00;62537.16;5091492;28;19926;-83
2023/03/22 08:56:45;;;;;;;;;;;7.80;83.30;;;-151.14;100.00;62537.16;5091838;28;19930;-83
2023/03/22 08:59:29;;;;;;;;;;;7.80;83.20;;;-151.14;100.00;62537.16;5091652;28;19920;-84
2023/03/22 09:02:11;;;;;;;;;;;7.80;83.00;;;-151.14;100.00;62537.16;5091946;28;20116;-83
2023/03/22 09:04:40;;;;;;;;;;;7.90;83.00;;;-151.14;100.00;62537.16;5091412;28;20119;-84
2023/03/22 09:07:08;;;;;;;;;;;7.90;82.80;;;-151.14;100.00;62537.16;5074944;28;19920;-83
2023/03/22 09:09:36;;;;;;;;;;;7.90;82.70;;;-151.14;100.00;62537.16;5074972;28;20216;-83
2023/03/22 09:12:06;;;;;;;;;;;7.90;82.70;;;-151.14;100.00;62537.16;5091119;28;19920;-84
2023/03/22 09:14:37;;;;;;;;;;;7.90;82.50;;;-151.14;100.00;62537.16;5074095;28;19920;-84
2023/03/22 09:17:05;;;;;;;;;;;7.90;82.60;;;-151.14;100.00;62537.16;5074891;28;19955;-84
2023/03/22 09:19:33;;;;;;;;;;;7.90;82.60;;;-151.14;100.00;62537.16;5074524;28;19920;-83
2023/03/22 09:22:01;;;;;;;;;;;7.90;82.80;;;-151.14;100.00;62537.16;5091641;28;20212;-83
2023/03/22 09:24:38;;;;;;;;;;;7.90;82.70;;;-151.14;100.00;62537.16;5073030;28;19920;-83
2023/03/22 09:27:06;;;;;;;;;;;7.90;82.70;;;-151.14;100.00;62537.16;5074730;28;20208;-83
2023/03/22 09:29:34;;;;;;;;;;;7.90;82.70;;;-151.14;100.00;62537.16;5074550;28;19920;-83
2023/03/22 09:32:08;;;;;;;;;;;7.90;82.80;;;-151.14;100.00;62537.16;5091561;28;19920;-83
2023/03/22 09:34:38;;;;;;;;;;;7.90;83.00;;;18.08;100.00;62537.16;5074002;28;19926;-83
2023/03/22 09:37:07;;;;;;;;;;;7.90;83.20;;;-151.14;100.00;62537.16;5091326;28;19920;-83
2023/03/22 09:39:46;;;;;;;;;;;7.90;83.00;;;-151.14;100.00;62537.16;5091094;28;19926;-83
2023/03/22 09:42:23;;;;;;;;;;;7.90;83.30;;;-151.14;100.00;62537.16;5074547;28;19920;-84
2023/03/22 09:44:51;;;;;;;;;;;7.90;83.00;;;-151.14;100.00;62537.16;5090756;28;19981;-83
2023/03/22 09:47:28;;;;;;;;;;;7.90;83.00;;;-151.14;100.00;62537.16;5091339;28;19920;-83
2023/03/22 09:50:00;;;;;;;;;;;7.90;83.00;;;-151.14;100.00;62537.16;5107957;28;19927;-84
2023/03/22 09:52:29;;;;;;;;;;;7.90;82.90;;;-151.14;100.00;62537.16;5091090;28;19926;-84
2023/03/22 09:54:57;;;;;;;;;;;7.90;82.90;;;-151.14;100.00;62537.16;5090584;28;19920;-83
2023/03/22 09:57:27;;;;;;;;;;;7.90;83.00;;;-151.14;100.00;62537.16;5074275;28;20226;-84
2023/03/22 09:59:57;;;;;;;;;;;7.90;83.00;;;6.71;100.00;62537.16;5091023;28;20040;-83
2023/03/22 10:02:53;;;;;;;;;;;7.90;83.20;;;-151.14;100.00;62537.16;5091025;28;19924;-84
2023/03/22 10:05:26;;;;;;;;;;;7.90;83.10;;;-151.14;100.00;62537.16;5092000;28;19920;-84
2023/03/22 10:08:05;;;;;;;;;;;7.80;82.90;;;-151.14;100.00;62537.16;5092042;28;19920;-83
2023/03/22 10:10:33;;;;;;;;;;;7.80;83.00;;;-151.14;100.00;62537.16;5090890;28;19920;-84
2023/03/22 10:13:06;;;;;;;;;;;7.80;83.10;;;-151.14;100.00;62537.16;5091353;28;19942;-84
2023/03/22 10:15:36;;;;;;;;;;;7.80;83.00;;;-151.14;100.00;62537.16;5090656;28;20329;-84
2023/03/22 10:18:07;;;;;;;;;;;7.80;83.10;;;-151.14;100.00;62537.16;5090719;28;19927;-84
2023/03/22 10:20:38;;;;;;;;;;;7.80;83.20;;;-151.14;100.00;62537.16;5091611;28;19927;-84
2023/03/22 10:23:07;;;;;;;;;;;7.80;83.30;;;-151.14;100.00;62537.16;5091284;28;19920;-83
2023/03/22 10:25:36;;;;;;;;;;;7.70;83.40;;;-151.14;100.00;62537.16;5091635;28;19927;-84
2023/03/22 10:28:14;;;;;;;;;;;7.80;83.50;;;-151.14;100.00;62537.16;5091809;28;19920;-84
2023/03/22 10:30:42;;;;;;;;;;;7.80;83.50;;;-151.14;100.00;62537.16;5091543;28;19943;-84
2023/03/22 10:33:14;;;;;;;;;;;7.80;83.30;;;-151.14;100.00;62537.16;5090049;28;20093;-84
2023/03/22 10:35:42;;;;;;;;;;;7.80;83.30;;;-151.14;100.00;62537.16;5089805;28;19920;-84
2023/03/22 10:38:18;;;;;;;;;;;7.80;83.30;;;-151.14;100.00;62537.16;5090564;28;19920;-84
2023/03/22 10:40:46;;;;;;;;;;;7.80;83.40;;;18.09;100.00;62537.16;5073638;28;19920;-84
2023/03/22 10:43:17;;;;;;;;;;;7.80;83.40;;;-151.14;100.00;62537.16;5073120;28;19921;-84
2023/03/22 10:45:45;;;;;;;;;;;7.80;83.30;;;-151.14;100.00;62537.16;5107280;28;19920;-84
2023/03/22 10:48:20;;;;;;;;;;;7.80;83.30;;;-151.14;100.00;62537.16;5106844;28;20205;-84
2023/03/22 10:50:48;;;;;;;;;;;7.80;83.40;;;-151.14;100.00;62537.16;5090144;28;20211;-84
2023/03/22 10:53:19;;;;;;;;;;;7.80;83.40;;;-151.14;100.00;62537.16;5077968;28;19920;-84
2023/03/22 10:55:47;;;;;;;;;;;7.80;83.30;;;-151.14;100.00;62537.16;5090214;28;19926;-84
2023/03/22 10:58:16;;;;;;;;;;;7.80;83.30;;;-151.14;100.00;62537.16;5107075;28;19920;-84
2023/03/22 11:00:45;;;;;;;;;;;7.80;83.40;;;-151.14;100.00;62537.16;5090047;28;19927;-84
2023/03/22 11:03:26;;;;;;;;;;;7.90;83.50;;;-151.14;100.00;62537.16;5089668;28;19920;-84
2023/03/22 11:06:06;;;;;;;;;;;7.90;83.40;;;-151.14;100.00;62537.16;5089962;28;19926;-84
2023/03/22 11:08:42;;;;;;;;;;;7.90;83.30;;;-151.14;100.00;62537.16;5091298;28;19920;-84
2023/03/22 11:11:19;;;;;;;;;;;7.90;83.30;;;-151.14;100.00;62537.16;5090004;28;19926;-83
2023/03/22 11:13:53;;;;;;;;;;;7.90;83.20;;;-151.14;100.00;62537.16;5106458;28;20216;-84
2023/03/22 11:16:21;;;;;;;;;;;7.90;83.30;;;-151.14;100.00;62537.16;5089795;28;20234;-85
2023/03/22 11:18:51;;;;;;;;;;;7.90;83.20;;;-151.14;100.00;62537.16;5090071;28;19926;-84
2023/03/22 11:21:19;;;;;;;;;;;7.90;83.10;;;-151.14;100.00;62537.16;5106826;28;20222;-84
2023/03/22 11:23:54;;;;;;;;;;;7.90;83.10;;;-151.14;100.00;62537.16;5089269;28;20116;-84
2023/03/22 11:26:27;;;;;;;;;;;8.00;83.10;;;-151.14;100.00;62537.16;5089776;28;19954;-84
2023/03/22 11:29:02;;;;;;;;;;;8.00;83.20;;;-151.14;100.00;62537.16;5089840;28;19920;-84